createdAt,value
2017-08-15T00:02:18.316Z,77.80
2017-08-15T00:04:48.411Z,77.40
2017-08-15T00:07:17.741Z,76.80
2017-08-15T00:09:47.827Z,77.10
2017-08-15T00:12:17.156Z,77.10
2017-08-15T00:14:47.236Z,77.30
2017-08-15T00:17:16.577Z,76.80
2017-08-15T00:19:45.888Z,76.90
2017-08-15T00:22:16.000Z,76.80
2017-08-15T00:24:45.324Z,77.20
2017-08-15T00:27:14.629Z,77.60
2017-08-15T00:29:43.969Z,77.60
2017-08-15T00:32:13.272Z,77.30
2017-08-15T00:34:42.602Z,77.10
2017-08-15T00:37:11.905Z,77.20
2017-08-15T00:39:41.229Z,77.40
2017-08-15T00:42:10.536Z,77.80
2017-08-15T00:44:39.866Z,78.20
2017-08-15T00:47:09.176Z,78.10
2017-08-15T00:49:38.504Z,78.30
2017-08-15T00:52:07.815Z,78.10
2017-08-15T00:54:37.137Z,78.10
2017-08-15T00:57:06.441Z,78.10
2017-08-15T00:59:35.774Z,78.10
2017-08-15T01:02:05.085Z,78.20
2017-08-15T01:04:34.408Z,78.10
2017-08-15T01:07:03.710Z,77.50
2017-08-15T01:09:33.031Z,77.60
2017-08-15T01:12:02.328Z,77.60
2017-08-15T01:14:31.647Z,77.50
2017-08-15T01:17:00.952Z,77.60
2017-08-15T01:19:30.307Z,77.40
2017-08-15T01:21:59.636Z,77.40
2017-08-15T01:24:28.964Z,77.50
2017-08-15T01:26:58.262Z,77.60
2017-08-15T01:29:27.588Z,77.60
2017-08-15T01:31:56.883Z,77.60
2017-08-15T01:34:27.260Z,77.50
2017-08-15T01:36:56.556Z,77.50
2017-08-15T01:39:25.864Z,77.20
2017-08-15T01:41:55.183Z,77.50
2017-08-15T01:44:24.484Z,77.50
2017-08-15T01:46:53.814Z,77.40
2017-08-15T01:49:23.875Z,77.40
2017-08-15T01:51:53.197Z,77.40
2017-08-15T01:54:22.498Z,77.70
2017-08-15T01:56:51.819Z,77.80
2017-08-15T01:59:21.137Z,77.70
2017-08-15T02:01:51.219Z,78.10
2017-08-15T02:04:20.532Z,77.70
2017-08-15T02:06:49.858Z,77.50
2017-08-15T02:09:19.165Z,77.40
2017-08-15T02:11:49.247Z,78.30
2017-08-15T02:14:18.560Z,77.60
2017-08-15T02:16:47.880Z,77.50
2017-08-15T02:19:17.949Z,77.50
2017-08-15T02:21:47.311Z,77.50
2017-08-15T02:24:16.623Z,77.50
2017-08-15T02:26:45.947Z,77.50
2017-08-15T02:29:15.244Z,77.70
2017-08-15T02:31:44.777Z,77.90
2017-08-15T02:34:14.138Z,78.20
2017-08-15T02:36:43.460Z,78.00
2017-08-15T02:39:12.771Z,78.00
2017-08-15T02:41:42.067Z,77.60
2017-08-15T02:44:11.396Z,77.30
2017-08-15T02:46:40.697Z,77.20
2017-08-15T02:49:10.080Z,77.30
2017-08-15T02:51:39.376Z,77.50
2017-08-15T02:54:08.691Z,77.70
2017-08-15T02:56:37.996Z,78.10
2017-08-15T02:59:07.317Z,78.50
2017-08-15T03:01:36.645Z,78.60
2017-08-15T03:04:05.952Z,78.80
2017-08-15T03:06:35.273Z,78.80
2017-08-15T03:09:04.624Z,78.60
2017-08-15T03:11:34.711Z,78.50
2017-08-15T03:14:04.023Z,78.10
2017-08-15T03:16:33.324Z,78.40
2017-08-15T03:19:02.685Z,78.20
2017-08-15T03:21:31.976Z,78.20
2017-08-15T03:24:01.320Z,78.10
2017-08-15T03:26:30.611Z,78.30
2017-08-15T03:28:59.936Z,78.40
2017-08-15T03:31:29.256Z,78.30
2017-08-15T03:33:58.597Z,78.40
2017-08-15T03:36:27.895Z,78.70
2017-08-15T03:38:57.231Z,79.60
2017-08-15T03:41:26.534Z,79.60
2017-08-15T03:43:55.855Z,79.50
2017-08-15T03:46:25.176Z,79.40
2017-08-15T03:48:55.256Z,79.40
2017-08-15T03:51:24.572Z,79.40
2017-08-15T03:53:53.980Z,80.00
2017-08-15T03:56:23.327Z,80.40
2017-08-15T03:58:52.640Z,80.50
2017-08-15T04:01:21.974Z,80.50
2017-08-15T04:03:51.284Z,80.50
2017-08-15T04:06:20.609Z,80.70
2017-08-15T04:08:49.919Z,80.90
2017-08-15T04:11:19.248Z,81.00
2017-08-15T04:13:48.581Z,80.80
2017-08-15T04:16:17.892Z,80.70
2017-08-15T04:18:47.204Z,80.80
2017-08-15T04:21:16.538Z,80.50
2017-08-15T04:23:45.847Z,80.70
2017-08-15T04:26:15.174Z,80.80
2017-08-15T04:28:44.482Z,80.50
2017-08-15T04:31:13.808Z,80.40
2017-08-15T04:33:43.116Z,80.10
2017-08-15T04:36:12.452Z,80.20
2017-08-15T04:38:41.744Z,80.00
2017-08-15T04:41:11.068Z,79.50
2017-08-15T04:43:40.379Z,79.40
2017-08-15T04:46:09.685Z,79.30
2017-08-15T04:48:39.015Z,79.30
2017-08-15T04:51:08.327Z,79.40
2017-08-15T04:53:38.409Z,79.20
2017-08-15T04:56:07.724Z,79.20
2017-08-15T04:58:37.052Z,78.90
2017-08-15T05:01:06.364Z,79.00
2017-08-15T05:03:36.312Z,79.20
2017-08-15T05:06:05.619Z,78.90
2017-08-15T05:08:34.948Z,79.00
2017-08-15T05:11:04.261Z,79.10
2017-08-15T05:13:34.328Z,78.80
2017-08-15T05:16:03.643Z,78.90
2017-08-15T05:18:32.971Z,78.70
2017-08-15T05:21:02.275Z,78.70
2017-08-15T05:23:31.592Z,78.40
2017-08-15T05:26:01.655Z,78.20
2017-08-15T05:28:30.989Z,78.20
2017-08-15T05:31:00.331Z,77.60
2017-08-15T05:33:30.408Z,73.60
2017-08-15T05:35:59.764Z,73.50
2017-08-15T05:38:29.059Z,71.30
2017-08-15T05:40:58.380Z,70.30
2017-08-15T05:43:27.688Z,67.90
2017-08-15T05:45:57.008Z,67.00
2017-08-15T05:48:26.311Z,65.30
2017-08-15T05:50:55.630Z,65.00
2017-08-15T05:53:24.933Z,63.40
2017-08-15T05:55:54.251Z,62.70
2017-08-15T05:58:24.331Z,61.40
2017-08-15T06:00:53.654Z,61.40
2017-08-15T06:03:22.968Z,61.40
2017-08-15T06:05:52.276Z,60.50
2017-08-15T06:08:21.597Z,59.70
2017-08-15T06:10:50.977Z,58.50
2017-08-15T06:13:20.299Z,58.80
2017-08-15T06:15:49.607Z,58.40
2017-08-15T06:18:18.917Z,58.80
2017-08-15T06:20:48.321Z,58.70
2017-08-15T06:23:17.623Z,57.30
2017-08-15T06:25:46.932Z,57.40
2017-08-15T06:28:16.249Z,56.60
2017-08-15T06:30:45.571Z,57.50
2017-08-15T06:33:14.891Z,57.00
2017-08-15T06:35:44.960Z,56.90
2017-08-15T06:38:14.304Z,56.90
2017-08-15T06:40:43.632Z,56.90
2017-08-15T06:43:12.961Z,58.00
2017-08-15T06:45:42.264Z,57.90
2017-08-15T06:48:11.584Z,58.90
2017-08-15T06:50:40.899Z,59.90
2017-08-15T06:53:10.212Z,59.90
2017-08-15T06:55:40.284Z,60.00
2017-08-15T06:58:09.619Z,59.90
2017-08-15T07:00:38.938Z,61.00
2017-08-15T07:03:09.032Z,62.20
2017-08-15T07:05:38.347Z,62.20
2017-08-15T07:08:07.677Z,60.90
2017-08-15T07:10:36.991Z,61.40
2017-08-15T07:13:06.316Z,60.80
2017-08-15T07:15:36.443Z,62.10
2017-08-15T07:18:05.836Z,62.10
2017-08-15T07:20:35.202Z,60.40
2017-08-15T07:23:05.281Z,60.00
2017-08-15T07:25:34.590Z,59.90
2017-08-15T07:28:03.929Z,60.90
2017-08-15T07:30:33.241Z,60.40
2017-08-15T07:33:02.588Z,58.00
2017-08-15T07:35:32.859Z,57.60
2017-08-15T07:38:02.196Z,57.90
2017-08-15T07:40:31.523Z,58.50
2017-08-15T07:43:00.844Z,58.30
2017-08-15T07:45:30.948Z,58.70
2017-08-15T07:48:01.039Z,59.40
2017-08-15T07:50:31.167Z,58.70
2017-08-15T07:53:00.485Z,58.70
2017-08-15T07:55:29.816Z,57.90
2017-08-15T07:57:59.918Z,58.20
2017-08-15T08:00:29.249Z,58.20
2017-08-15T08:02:58.568Z,58.30
2017-08-15T08:05:27.933Z,58.30
2017-08-15T08:07:58.004Z,58.10
2017-08-15T08:10:27.344Z,58.10
2017-08-15T08:12:56.661Z,58.10
2017-08-15T08:15:26.761Z,58.20
2017-08-15T08:17:56.085Z,58.10
2017-08-15T08:20:25.424Z,58.30
2017-08-15T08:22:54.727Z,57.30
2017-08-15T08:25:24.057Z,57.60
2017-08-15T08:27:53.367Z,58.10
2017-08-15T08:30:22.708Z,58.10
2017-08-15T08:32:52.019Z,58.50
2017-08-15T08:35:21.393Z,57.70
2017-08-15T08:37:51.488Z,55.20
2017-08-15T08:40:20.840Z,55.10
2017-08-15T08:42:50.172Z,55.20
2017-08-15T08:45:19.486Z,55.00
2017-08-15T08:47:48.841Z,55.20
2017-08-15T08:50:18.182Z,54.40
2017-08-15T08:52:47.501Z,54.70
2017-08-15T08:55:17.604Z,54.30
2017-08-15T08:57:46.936Z,54.20
2017-08-15T09:00:17.015Z,54.30
2017-08-15T09:02:46.343Z,53.70
2017-08-15T09:05:15.709Z,52.30
2017-08-15T09:07:45.034Z,52.20
2017-08-15T09:10:14.372Z,52.20
2017-08-15T09:12:44.472Z,52.20
2017-08-15T09:15:13.824Z,52.20
2017-08-15T09:17:43.160Z,52.30
2017-08-15T09:20:12.464Z,52.20
2017-08-15T09:22:41.789Z,52.30
2017-08-15T09:25:11.872Z,51.70
2017-08-15T09:27:41.248Z,51.70
2017-08-15T09:30:10.579Z,51.80
2017-08-15T09:32:39.931Z,51.90
2017-08-15T09:35:10.007Z,51.00
2017-08-15T09:37:39.360Z,51.00
2017-08-15T09:40:08.687Z,52.00
2017-08-15T09:42:38.038Z,51.80
2017-08-15T09:45:08.919Z,52.20
2017-08-15T09:47:38.236Z,51.60
2017-08-15T09:50:07.567Z,51.60
2017-08-15T09:52:36.867Z,52.20
2017-08-15T09:55:06.195Z,51.40
2017-08-15T09:57:35.501Z,51.20
2017-08-15T10:00:04.826Z,51.60
2017-08-15T10:02:34.128Z,51.30
2017-08-15T10:05:03.460Z,51.80
2017-08-15T10:07:32.766Z,51.90
2017-08-15T10:10:02.090Z,51.30
2017-08-15T10:12:31.409Z,50.80
2017-08-15T10:15:01.506Z,50.20
2017-08-15T10:17:30.809Z,50.10
2017-08-15T10:20:00.144Z,50.00
2017-08-15T10:22:29.472Z,50.10
2017-08-15T10:24:58.802Z,50.40
2017-08-15T10:27:28.117Z,50.40
2017-08-15T10:29:57.420Z,49.80
2017-08-15T10:32:27.520Z,49.30
2017-08-15T10:34:56.826Z,49.90
2017-08-15T10:37:26.148Z,49.50
2017-08-15T10:39:55.453Z,49.30
2017-08-15T10:42:25.540Z,50.00
2017-08-15T10:44:54.848Z,50.00
2017-08-15T10:47:24.177Z,48.70
2017-08-15T10:49:53.483Z,47.10
2017-08-15T10:52:23.569Z,47.90
2017-08-15T10:54:52.867Z,47.90
2017-08-15T10:57:22.183Z,47.70
2017-08-15T10:59:51.495Z,48.40
2017-08-15T11:02:20.824Z,49.10
2017-08-15T11:04:50.132Z,48.40
2017-08-15T11:07:19.464Z,48.20
2017-08-15T11:09:48.780Z,47.70
2017-08-15T11:12:18.110Z,47.50
2017-08-15T11:14:47.437Z,47.40
2017-08-15T11:17:16.748Z,47.30
2017-08-15T11:19:46.077Z,46.70
2017-08-15T11:22:15.413Z,46.40
2017-08-15T11:24:44.721Z,45.10
2017-08-15T11:27:15.168Z,45.40
2017-08-15T11:29:44.472Z,45.40
2017-08-15T11:32:13.781Z,44.00
2017-08-15T11:34:43.384Z,44.90
2017-08-15T11:37:12.691Z,44.90
2017-08-15T11:39:42.047Z,44.80
2017-08-15T11:42:12.132Z,46.20
2017-08-15T11:44:41.457Z,45.40
2017-08-15T11:47:16.198Z,44.80
2017-08-15T11:49:46.293Z,43.00
2017-08-15T11:52:15.605Z,42.90
2017-08-15T11:54:44.928Z,42.10
2017-08-15T11:57:15.006Z,42.80
2017-08-15T11:59:44.326Z,42.70
2017-08-15T12:02:13.636Z,42.80
2017-08-15T12:04:42.955Z,41.70
2017-08-15T12:07:12.269Z,41.70
2017-08-15T12:09:41.591Z,43.00
2017-08-15T12:12:10.899Z,41.70
2017-08-15T12:14:40.243Z,41.90
2017-08-15T12:17:09.548Z,43.10
2017-08-15T12:19:38.875Z,41.80
2017-08-15T12:22:08.184Z,42.40
2017-08-15T12:24:37.483Z,41.80
2017-08-15T12:27:06.803Z,42.60
2017-08-15T12:29:36.124Z,40.70
2017-08-15T12:32:05.444Z,41.60
2017-08-15T12:34:34.744Z,41.80
2017-08-15T12:37:04.063Z,42.30
2017-08-15T12:39:34.136Z,40.20
2017-08-15T12:42:03.509Z,40.20
2017-08-15T12:44:32.807Z,41.20
2017-08-15T12:47:02.128Z,41.50
2017-08-15T12:49:31.452Z,41.90
2017-08-15T12:52:00.764Z,41.50
2017-08-15T12:54:30.095Z,41.90
2017-08-15T12:57:00.177Z,46.80
2017-08-15T12:59:29.496Z,46.80
2017-08-15T13:01:58.828Z,52.60
2017-08-15T13:04:28.155Z,61.90
2017-08-15T13:06:57.480Z,59.20
2017-08-15T13:09:26.800Z,62.50
2017-08-15T13:11:56.116Z,64.70
2017-08-15T13:14:25.433Z,71.60
2017-08-15T13:16:55.528Z,75.00
2017-08-15T13:19:24.844Z,75.00
2017-08-15T13:21:54.169Z,74.40
2017-08-15T13:24:23.468Z,75.10
2017-08-15T13:26:53.572Z,77.30
2017-08-15T13:29:22.934Z,77.30
2017-08-15T13:31:52.282Z,75.70
2017-08-15T13:34:21.610Z,76.90
2017-08-15T13:36:50.914Z,78.90
2017-08-15T13:39:20.241Z,81.70
2017-08-15T13:41:49.549Z,83.10
2017-08-15T13:44:18.897Z,83.00
2017-08-15T13:46:48.193Z,81.80
2017-08-15T13:49:17.541Z,83.50
2017-08-15T13:51:46.841Z,85.40
2017-08-15T13:54:16.163Z,83.80
2017-08-15T13:56:45.479Z,83.80
2017-08-15T13:59:14.810Z,79.10
2017-08-15T14:01:44.872Z,78.60
2017-08-15T14:04:14.201Z,78.50
2017-08-15T14:06:43.541Z,77.70
2017-08-15T14:09:12.852Z,77.40
2017-08-15T14:11:42.157Z,74.80
2017-08-15T14:14:11.484Z,76.50
2017-08-15T14:16:41.093Z,74.80
2017-08-15T14:19:10.437Z,76.00
2017-08-15T14:21:39.740Z,77.40
2017-08-15T14:24:09.865Z,77.00
2017-08-15T14:26:39.194Z,77.00
2017-08-15T14:29:08.518Z,76.70
2017-08-15T14:31:37.826Z,77.60
2017-08-15T14:34:07.171Z,75.60
2017-08-15T14:36:36.539Z,73.00
2017-08-15T14:39:05.980Z,74.60
2017-08-15T14:41:35.325Z,73.90
2017-08-15T14:44:04.691Z,71.80
2017-08-15T14:46:34.040Z,72.30
2017-08-15T14:49:03.401Z,72.30
2017-08-15T14:51:32.733Z,70.70
2017-08-15T14:54:02.053Z,71.40
2017-08-15T14:56:31.376Z,70.50
2017-08-15T14:59:01.465Z,72.20
2017-08-15T15:01:30.797Z,71.50
2017-08-15T15:04:01.397Z,71.70
2017-08-15T15:06:30.726Z,71.30
2017-08-15T15:09:00.041Z,71.30
2017-08-15T15:11:29.424Z,71.80
2017-08-15T15:13:58.808Z,71.70
2017-08-15T15:16:28.124Z,70.80
2017-08-15T15:18:57.438Z,70.30
2017-08-15T15:21:26.769Z,71.70
2017-08-15T15:23:56.093Z,70.10
2017-08-15T15:26:25.421Z,67.70
2017-08-15T15:28:54.772Z,66.90
2017-08-15T15:31:24.165Z,67.90
2017-08-15T15:33:54.249Z,61.10
2017-08-15T15:36:23.585Z,61.00
2017-08-15T15:38:52.923Z,61.00
2017-08-15T15:41:22.282Z,59.80
2017-08-15T15:43:51.619Z,58.00
2017-08-15T15:46:21.009Z,57.70
2017-08-15T15:48:50.336Z,58.70
2017-08-15T15:51:20.445Z,58.30
2017-08-15T15:53:49.765Z,58.30
2017-08-15T15:56:19.910Z,57.80
2017-08-15T15:58:49.252Z,57.80
2017-08-15T16:01:18.572Z,57.40
2017-08-15T16:03:47.905Z,58.50
2017-08-15T16:06:17.234Z,58.50
2017-08-15T16:08:46.572Z,57.80
2017-08-15T16:11:15.890Z,57.80
2017-08-15T16:13:45.226Z,57.80
2017-08-15T16:16:14.549Z,58.40
2017-08-15T16:18:43.881Z,58.40
2017-08-15T16:21:13.217Z,58.00
2017-08-15T16:23:42.553Z,57.50
2017-08-15T16:26:11.876Z,58.00
2017-08-15T16:28:41.212Z,56.90
2017-08-15T16:31:10.524Z,57.70
2017-08-15T16:33:40.722Z,57.40
2017-08-15T16:36:10.032Z,57.40
2017-08-15T16:38:40.143Z,58.50
2017-08-15T16:41:10.228Z,60.00
2017-08-15T16:43:39.624Z,60.00
2017-08-15T16:46:08.941Z,58.40
2017-08-15T16:48:39.302Z,58.50
2017-08-15T16:51:08.629Z,58.60
2017-08-15T16:53:37.968Z,60.20
2017-08-15T16:56:07.293Z,63.70
2017-08-15T16:58:37.389Z,65.30
2017-08-15T17:01:07.180Z,65.30
2017-08-15T17:03:36.512Z,66.10
2017-08-15T17:06:05.840Z,66.40
2017-08-15T17:08:35.177Z,67.10
2017-08-15T17:11:04.495Z,66.90
2017-08-15T17:13:33.841Z,67.50
2017-08-15T17:16:03.928Z,66.50
2017-08-15T17:18:33.237Z,65.70
2017-08-15T17:21:02.569Z,65.90
2017-08-15T17:23:31.886Z,66.10
2017-08-15T17:26:01.213Z,68.80
2017-08-15T17:28:30.517Z,70.90
2017-08-15T17:30:59.937Z,72.70
2017-08-15T17:33:29.274Z,74.60
2017-08-15T17:35:58.600Z,75.90
2017-08-15T17:38:27.920Z,76.40
2017-08-15T17:40:57.262Z,79.30
2017-08-15T17:43:26.584Z,81.30
2017-08-15T17:45:56.906Z,81.90
2017-08-15T17:48:27.013Z,80.50
2017-08-15T17:50:56.341Z,80.40
2017-08-15T17:53:25.656Z,80.00
2017-08-15T17:55:54.982Z,79.10
2017-08-15T17:58:24.295Z,79.40
2017-08-15T18:00:53.633Z,79.50
2017-08-15T18:03:22.953Z,80.30
2017-08-15T18:05:52.298Z,80.80
2017-08-15T18:08:21.624Z,80.20
2017-08-15T18:10:51.004Z,82.60
2017-08-15T18:13:21.092Z,80.80
2017-08-15T18:15:50.441Z,80.00
2017-08-15T18:18:19.754Z,79.60
2017-08-15T18:20:49.095Z,79.80
2017-08-15T18:23:18.433Z,80.70
2017-08-15T18:25:47.765Z,81.30
2017-08-15T18:28:17.093Z,80.50
2017-08-15T18:30:46.426Z,80.80
2017-08-15T18:33:15.744Z,80.10
2017-08-15T18:35:45.085Z,80.00
2017-08-15T18:38:14.427Z,80.10
2017-08-15T18:40:43.753Z,79.40
2017-08-15T18:43:13.088Z,79.10
2017-08-15T18:45:42.406Z,80.70
2017-08-15T18:48:11.736Z,81.10
2017-08-15T18:50:41.815Z,79.90
2017-08-15T18:53:11.149Z,79.80
2017-08-15T18:55:40.485Z,80.30
2017-08-15T18:58:09.829Z,80.90
2017-08-15T19:00:39.144Z,81.20
2017-08-15T19:03:08.485Z,80.90
2017-08-15T19:05:37.793Z,81.20
2017-08-15T19:08:07.141Z,80.50
2017-08-15T19:10:36.460Z,80.50
2017-08-15T19:13:05.789Z,80.80
2017-08-15T19:15:35.101Z,80.60
2017-08-15T19:18:04.437Z,80.30
2017-08-15T19:20:33.744Z,80.00
2017-08-15T19:23:03.088Z,80.30
2017-08-15T19:25:32.404Z,80.70
2017-08-15T19:28:01.733Z,80.90
2017-08-15T19:30:31.058Z,81.20
2017-08-15T19:33:00.441Z,81.20
2017-08-15T19:35:29.758Z,81.10
2017-08-15T19:37:59.090Z,81.30
2017-08-15T19:40:28.401Z,82.30
2017-08-15T19:42:57.729Z,82.40
2017-08-15T19:45:27.060Z,82.50
2017-08-15T19:47:56.372Z,81.70
2017-08-15T19:50:25.714Z,81.90
2017-08-15T19:52:55.092Z,82.10
2017-08-15T19:55:24.409Z,82.40
2017-08-15T19:57:53.734Z,83.10
2017-08-15T20:00:23.081Z,83.30
2017-08-15T20:02:52.388Z,83.00
2017-08-15T20:05:21.713Z,82.00
2017-08-15T20:07:51.042Z,82.10
2017-08-15T20:10:20.365Z,82.30
2017-08-15T20:12:49.705Z,82.40
2017-08-15T20:15:19.072Z,82.50
2017-08-15T20:17:48.434Z,82.90
2017-08-15T20:20:17.823Z,83.40
2017-08-15T20:22:47.929Z,84.20
2017-08-15T20:25:17.258Z,83.40
2017-08-15T20:27:46.590Z,82.60
2017-08-15T20:30:15.925Z,82.90
2017-08-15T20:32:45.215Z,83.00
2017-08-15T20:35:14.525Z,83.30
2017-08-15T20:37:43.825Z,84.30
2017-08-15T20:40:13.133Z,83.70
2017-08-15T20:42:42.428Z,83.20
2017-08-15T20:45:11.744Z,84.50
2017-08-15T20:47:41.141Z,84.80
2017-08-15T20:50:10.449Z,84.60
2017-08-15T20:52:39.836Z,84.40
2017-08-15T20:55:09.132Z,83.70
2017-08-15T20:57:38.533Z,81.70
2017-08-15T21:00:07.841Z,82.40
2017-08-15T21:02:37.168Z,82.50
2017-08-15T21:05:06.472Z,82.70
2017-08-15T21:07:35.801Z,82.70
2017-08-15T21:10:05.868Z,82.50
2017-08-15T21:12:35.188Z,82.50
2017-08-15T21:15:04.496Z,82.50
2017-08-15T21:17:33.821Z,82.40
2017-08-15T21:20:03.897Z,81.50
2017-08-15T21:22:33.218Z,81.40
2017-08-15T21:25:02.537Z,82.00
2017-08-15T21:27:32.626Z,82.10
2017-08-15T21:30:01.915Z,82.60
2017-08-15T21:32:31.238Z,82.70
2017-08-15T21:35:00.530Z,82.60
2017-08-15T21:37:29.837Z,83.10
2017-08-15T21:39:59.130Z,83.30
2017-08-15T21:42:28.440Z,83.30
2017-08-15T21:44:57.729Z,83.60
2017-08-15T21:47:27.037Z,83.40
2017-08-15T21:49:56.329Z,83.00
2017-08-15T21:52:25.644Z,83.00
2017-08-15T21:54:54.964Z,82.70
2017-08-15T21:57:25.148Z,82.50
2017-08-15T21:59:54.448Z,82.40
2017-08-15T22:02:23.762Z,83.00
2017-08-15T22:04:53.084Z,82.60
2017-08-15T22:07:22.401Z,82.70
2017-08-15T22:09:52.497Z,82.50
2017-08-15T22:12:21.811Z,82.30
2017-08-15T22:14:51.129Z,82.40
2017-08-15T22:17:20.443Z,82.10
2017-08-15T22:19:50.517Z,82.40
2017-08-15T22:22:19.825Z,82.30
2017-08-15T22:24:49.157Z,82.40
2017-08-15T22:27:18.495Z,82.70
2017-08-15T22:29:47.812Z,82.20
2017-08-15T22:32:17.130Z,82.30
2017-08-15T22:34:46.445Z,82.00
2017-08-15T22:37:16.534Z,83.10
2017-08-15T22:39:45.869Z,82.20
2017-08-15T22:42:15.947Z,81.60
2017-08-15T22:44:45.277Z,81.60
2017-08-15T22:47:14.593Z,81.00
2017-08-15T22:49:44.680Z,81.50
2017-08-15T22:52:13.988Z,81.30
2017-08-15T22:54:43.324Z,81.40
2017-08-15T22:57:13.402Z,78.70
2017-08-15T22:59:42.728Z,78.70
2017-08-15T23:02:12.048Z,77.50
2017-08-15T23:04:41.349Z,77.00
2017-08-15T23:07:11.427Z,74.80
2017-08-15T23:09:40.733Z,74.80
2017-08-15T23:12:10.051Z,74.80
2017-08-15T23:14:40.128Z,75.40
2017-08-15T23:17:09.444Z,75.40
2017-08-15T23:19:38.745Z,75.80
2017-08-15T23:22:08.068Z,75.70
2017-08-15T23:24:37.382Z,76.90
2017-08-15T23:27:07.469Z,77.40
2017-08-15T23:29:36.776Z,77.30
2017-08-15T23:32:06.098Z,77.60
2017-08-15T23:34:35.392Z,78.30
2017-08-15T23:37:04.744Z,77.40
2017-08-15T23:39:34.045Z,77.40
2017-08-15T23:42:03.357Z,77.50
2017-08-15T23:44:32.668Z,77.20
2017-08-15T23:47:02.009Z,77.30
2017-08-15T23:49:31.305Z,77.20
2017-08-15T23:52:01.389Z,77.70
2017-08-15T23:54:30.695Z,77.60
2017-08-15T23:57:00.010Z,77.90
2017-08-15T23:59:30.099Z,79.60
